Time;durP1;ratioP1;P1;durP2;ratioP2;P2;SDS_P1;SDS_P2;PMS_P1;PMS_P2;Temp;Humidity;BMP_temperature;BMP_pressure;BME280_temperature;BME280_humidity;BME280_pressure;Samples;Min_cycle;Max_cycle;Signal;HPM_P1;HPM_P2
2023/04/04 00:01:02;;;;;;;;;;;6.50;99.90;;;;;;5055916;28;20003;-71
2023/04/04 00:03:43;;;;;;;;;;;6.60;99.90;;;;;;5055723;28;19995;-71
2023/04/04 00:06:30;;;;;;;;;;;6.60;99.90;;;;;;5055411;28;20003;-70
2023/04/04 00:08:56;;;;;;;;;;;6.60;99.90;;;;;;5054874;28;20324;-71
2023/04/04 00:11:25;;;;;;;;;;;6.60;99.90;;;;;;5055569;28;19920;-71
2023/04/04 00:14:12;;;;;;;;;;;6.50;99.90;;;;;;5053782;28;19921;-71
2023/04/04 00:16:38;;;;;;;;;;;6.50;99.90;;;;;;5055094;28;20446;-71
2023/04/04 00:19:04;;;;;;;;;;;6.40;99.90;;;;;;5055141;28;19909;-71
2023/04/04 00:21:33;;;;;;;;;;;6.40;99.90;;;;;;5055003;28;19909;-70
2023/04/04 00:23:58;;;;;;;;;;;6.40;99.90;;;;;;5052941;28;19920;-71
2023/04/04 00:26:25;;;;;;;;;;;6.30;99.90;;;;;;5055251;28;19913;-71
2023/04/04 00:29:00;;;;;;;;;;;6.40;99.90;;;;;;5054795;28;19919;-71
2023/04/04 00:31:26;;;;;;;;;;;6.30;99.90;;;;;;5055330;28;20285;-70
2023/04/04 00:33:52;;;;;;;;;;;6.30;99.90;;;;;;5054994;28;19944;-71
2023/04/04 00:36:21;;;;;;;;;;;6.30;99.90;;;;;;5053346;28;20326;-70
2023/04/04 00:38:46;;;;;;;;;;;6.20;99.90;;;;;;5054742;28;20294;-70
2023/04/04 00:41:12;;;;;;;;;;;6.30;99.90;;;;;;5053407;28;19967;-70
2023/04/04 00:43:41;;;;;;;;;;;6.20;99.90;;;;;;5054612;28;19909;-70
2023/04/04 00:46:08;;;;;;;;;;;6.20;99.90;;;;;;5054928;28;19980;-70
2023/04/04 00:48:34;;;;;;;;;;;6.20;99.90;;;;;;5053386;28;19920;-72
2023/04/04 00:51:01;;;;;;;;;;;6.20;99.90;;;;;;5053837;28;19916;-71
2023/04/04 00:53:26;;;;;;;;;;;6.20;99.90;;;;;;5053511;28;20290;-69
2023/04/04 00:56:15;;;;;;;;;;;6.20;99.90;;;;;;5054608;28;19919;-70
2023/04/04 00:58:42;;;;;;;;;;;6.20;99.90;;;;;;5054626;28;19909;-70
2023/04/04 01:01:09;;;;;;;;;;;6.20;99.80;;;;;;5054234;28;19931;-70
2023/04/04 01:03:36;;;;;;;;;;;6.30;99.60;;;;;;5053482;28;20444;-70
2023/04/04 01:06:02;;;;;;;;;;;6.20;99.40;;;;;;5054125;28;20306;-70
2023/04/04 01:08:29;;;;;;;;;;;6.20;99.60;;;;;;5054239;28;19984;-70
2023/04/04 01:10:55;;;;;;;;;;;6.20;99.50;;;;;;5053461;28;19915;-71
2023/04/04 01:13:24;;;;;;;;;;;6.20;99.50;;;;;;5053717;28;19909;-71
2023/04/04 01:15:50;;;;;;;;;;;6.20;99.50;;;;;;5053571;28;19915;-70
2023/04/04 01:18:18;;;;;;;;;;;6.20;99.70;;;;;;5052671;28;20290;-70
2023/04/04 01:20:50;;;;;;;;;;;6.20;99.40;;;;;;5053505;28;20366;-70
2023/04/04 01:23:19;;;;;;;;;;;6.20;99.40;;;;;;5052533;28;19974;-69
2023/04/04 01:25:50;;;;;;;;;;;6.30;99.40;;;;;;5053262;28;19915;-71
2023/04/04 01:28:21;;;;;;;;;;;6.30;98.90;;;;;;5053280;28;19960;-71
2023/04/04 01:30:47;;;;;;;;;;;6.30;99.10;;;;;;5052792;28;20386;-71
2023/04/04 01:33:19;;;;;;;;;;;6.20;99.30;;;;;;5051785;28;19920;-70
2023/04/04 01:35:54;;;;;;;;;;;6.20;99.10;;;;;;5053257;28;19913;-70
2023/04/04 01:38:24;;;;;;;;;;;6.20;99.10;;;;;;5054020;28;20133;-71
2023/04/04 01:40:54;;;;;;;;;;;6.10;99.10;;;;;;5052380;28;19909;-70
2023/04/04 01:43:19;;;;;;;;;;;6.10;98.80;;;;;;5053564;28;19948;-71
2023/04/04 01:46:05;;;;;;;;;;;6.10;99.10;;;;;;5052651;28;19916;-73
2023/04/04 01:48:31;;;;;;;;;;;6.10;98.80;;;;;;5052433;28;19920;-71
2023/04/04 01:50:58;;;;;;;;;;;6.10;99.50;;;;;;5053353;28;19913;-70
2023/04/04 01:53:24;;;;;;;;;;;6.10;99.00;;;;;;5053071;28;19908;-70
2023/04/04 01:55:53;;;;;;;;;;;6.10;99.10;;;;;;5053869;28;19916;-70
2023/04/04 01:58:22;;;;;;;;;;;6.10;99.00;;;;;;5053878;28;19909;-70
2023/04/04 02:00:55;;;;;;;;;;;6.00;99.00;;;;;;5052242;28;19909;-70
2023/04/04 02:03:21;;;;;;;;;;;6.00;99.40;;;;;;5053677;28;20302;-70
2023/04/04 02:05:47;;;;;;;;;;;6.00;99.10;;;;;;5052366;28;19912;-70
2023/04/04 02:08:14;;;;;;;;;;;6.00;99.40;;;;;;5054207;28;19921;-70
2023/04/04 02:10:43;;;;;;;;;;;5.90;99.00;;;;;;5052446;28;20371;-70
2023/04/04 02:13:11;;;;;;;;;;;6.00;99.40;;;;;;5053422;28;19909;-71
2023/04/04 02:15:46;;;;;;;;;;;6.00;99.30;;;;;;5051956;28;20000;-70
2023/04/04 02:18:15;;;;;;;;;;;6.00;99.00;;;;;;5051570;28;19909;-70
2023/04/04 02:20:41;;;;;;;;;;;5.90;99.10;;;;;;5053504;28;19916;-71
2023/04/04 02:23:09;;;;;;;;;;;5.90;98.90;;;;;;5051501;28;19943;-71
2023/04/04 02:25:35;;;;;;;;;;;5.90;99.00;;;;;;5051785;28;19916;-73
2023/04/04 02:28:01;;;;;;;;;;;5.90;99.00;;;;;;5053402;28;19919;-70
2023/04/04 02:30:42;;;;;;;;;;;5.90;99.20;;;;;;5052930;28;19913;-70
2023/04/04 02:33:07;;;;;;;;;;;5.90;99.10;;;;;;5057216;28;19909;-69
2023/04/04 02:35:33;;;;;;;;;;;5.90;99.20;;;;;;5057329;28;20399;-69
2023/04/04 02:37:59;;;;;;;;;;;5.90;99.20;;;;;;5055685;28;20054;-70
2023/04/04 02:40:25;;;;;;;;;;;5.90;99.20;;;;;;5056216;28;20404;-70
2023/04/04 02:42:50;;;;;;;;;;;5.90;99.10;;;;;;5055477;28;19916;-70
2023/04/04 02:45:18;;;;;;;;;;;5.80;99.00;;;;;;5057062;28;20325;-71
2023/04/04 02:47:51;;;;;;;;;;;5.80;99.20;;;;;;5055465;28;19956;-70
2023/04/04 02:50:26;;;;;;;;;;;5.70;99.10;;;;;;5055649;28;19909;-71
2023/04/04 02:52:53;;;;;;;;;;;5.70;99.30;;;;;;5056973;28;19974;-71
2023/04/04 02:55:22;;;;;;;;;;;5.60;99.10;;;;;;5056248;28;19978;-69
2023/04/04 02:57:51;;;;;;;;;;;5.60;99.10;;;;;;5056314;28;20390;-70
2023/04/04 03:00:17;;;;;;;;;;;5.70;99.40;;;;;;5056732;28;19909;-70
2023/04/04 03:02:43;;;;;;;;;;;5.70;99.20;;;;;;5056511;28;19920;-73
2023/04/04 03:05:08;;;;;;;;;;;5.70;99.10;;;;;;5055922;28;19932;-70
2023/04/04 03:07:34;;;;;;;;;;;5.60;99.10;;;;;;5056064;28;19912;-70
2023/04/04 03:10:00;;;;;;;;;;;5.70;99.30;;;;;;5056036;28;19908;-70
2023/04/04 03:12:35;;;;;;;;;;;5.70;99.30;;;;;;5056568;28;19991;-69
2023/04/04 03:15:00;;;;;;;;;;;5.70;99.10;;;;;;5054271;28;20259;-71
2023/04/04 03:17:26;;;;;;;;;;;5.70;99.10;;;;;;5056252;28;19915;-70
2023/04/04 03:20:22;;;;;;;;;;;5.70;98.80;;;;;;5054704;28;20133;-69
2023/04/04 03:22:47;;;;;;;;;;;5.60;98.80;;;;;;5055446;28;19909;-70
2023/04/04 03:25:13;;;;;;;;;;;5.60;98.50;;;;;;5054339;28;19944;-71
2023/04/04 03:27:38;;;;;;;;;;;5.50;98.80;;;;;;5055177;28;19961;-70
2023/04/04 03:30:05;;;;;;;;;;;5.60;99.20;;;;;;5056468;28;19908;-71
2023/04/04 03:32:31;;;;;;;;;;;5.60;98.90;;;;;;5055593;28;19908;-71
2023/04/04 03:34:57;;;;;;;;;;;5.60;98.60;;;;;;5055285;28;19908;-70
2023/04/04 03:37:28;;;;;;;;;;;5.50;98.80;;;;;;5054421;28;19920;-69
2023/04/04 03:39:54;;;;;;;;;;;5.50;99.10;;;;;;5055645;28;19909;-70
2023/04/04 03:42:19;;;;;;;;;;;5.50;98.90;;;;;;5054657;28;19916;-71
2023/04/04 03:44:45;;;;;;;;;;;5.50;99.20;;;;;;5053860;28;20282;-70
2023/04/04 03:47:11;;;;;;;;;;;5.50;99.10;;;;;;5055346;28;19969;-70
2023/04/04 03:49:36;;;;;;;;;;;5.50;99.40;;;;;;5053280;28;19951;-70
2023/04/04 03:52:02;;;;;;;;;;;5.40;99.30;;;;;;5053900;28;19994;-70
2023/04/04 03:54:28;;;;;;;;;;;5.40;99.40;;;;;;5055121;28;19908;-70
2023/04/04 03:56:54;;;;;;;;;;;5.40;99.40;;;;;;5053953;28;20362;-70
2023/04/04 03:59:20;;;;;;;;;;;5.40;99.10;;;;;;5055147;28;19909;-70
2023/04/04 04:01:46;;;;;;;;;;;5.40;99.20;;;;;;5055132;28;19963;-71
2023/04/04 04:04:12;;;;;;;;;;;5.40;99.40;;;;;;5053649;28;20251;-71
2023/04/04 04:06:38;;;;;;;;;;;5.50;99.70;;;;;;5054921;28;19909;-70
2023/04/04 04:09:06;;;;;;;;;;;5.40;98.90;;;;;;5054505;28;20007;-71
2023/04/04 04:11:32;;;;;;;;;;;5.30;99.10;;;;;;5053811;28;19917;-70
2023/04/04 04:13:59;;;;;;;;;;;5.30;99.10;;;;;;5052691;28;19950;-71
2023/04/04 04:16:26;;;;;;;;;;;5.30;99.20;;;;;;5037100;28;20295;-70
2023/04/04 04:18:55;;;;;;;;;;;5.30;99.20;;;;;;5054778;28;19974;-70
2023/04/04 04:21:20;;;;;;;;;;;5.30;99.50;;;;;;5053453;28;19909;-70
2023/04/04 04:23:46;;;;;;;;;;;5.30;99.10;;;;;;5054580;28;20405;-70
2023/04/04 04:26:15;;;;;;;;;;;5.30;99.20;;;;;;5053133;28;19996;-70
2023/04/04 04:28:41;;;;;;;;;;;5.30;98.90;;;;;;5052980;28;19913;-71
2023/04/04 04:31:07;;;;;;;;;;;5.20;98.80;;;;;;5054156;28;19909;-70
2023/04/04 04:33:33;;;;;;;;;;;5.20;99.10;;;;;;5054081;28;19955;-70
2023/04/04 04:36:00;;;;;;;;;;;5.20;98.70;;;;;;5053864;28;19915;-70
2023/04/04 04:38:27;;;;;;;;;;;5.20;99.10;;;;;;5054637;28;19909;-70
2023/04/04 04:40:53;;;;;;;;;;;5.20;98.80;;;;;;5054110;28;20371;-71
2023/04/04 04:43:19;;;;;;;;;;;5.20;99.20;;;;;;5052737;28;19932;-71
2023/04/04 04:45:45;;;;;;;;;;;5.20;98.90;;;;;;5054063;28;19912;-71
2023/04/04 04:48:11;;;;;;;;;;;5.30;98.90;;;;;;5053895;28;19958;-71
2023/04/04 04:50:37;;;;;;;;;;;5.30;98.80;;;;;;5054097;28;20367;-71
2023/04/04 04:53:03;;;;;;;;;;;5.20;98.50;;;;;;5036001;28;19993;-70
2023/04/04 04:55:29;;;;;;;;;;;5.20;98.80;;;;;;5053477;28;19948;-71
2023/04/04 04:57:54;;;;;;;;;;;5.20;98.70;;;;;;5054143;28;19909;-70
2023/04/04 05:00:21;;;;;;;;;;;5.20;98.90;;;;;;5054400;28;19909;-70
2023/04/04 05:02:46;;;;;;;;;;;5.20;98.50;;;;;;5053968;28;19948;-70
2023/04/04 05:05:12;;;;;;;;;;;5.10;98.50;;;;;;5051965;28;19913;-70
2023/04/04 05:07:38;;;;;;;;;;;5.10;98.90;;;;;;5052515;28;20046;-71
2023/04/04 05:10:04;;;;;;;;;;;5.20;98.80;;;;;;5053288;28;19916;-71
2023/04/04 05:12:29;;;;;;;;;;;5.20;98.70;;;;;;5054047;28;19970;-75
2023/04/04 05:14:56;;;;;;;;;;;5.20;98.80;;;;;;5053732;28;20268;-71
2023/04/04 05:17:22;;;;;;;;;;;5.10;99.20;;;;;;5054073;28;20353;-71
2023/04/04 05:19:47;;;;;;;;;;;5.10;98.80;;;;;;5053705;28;20011;-71
2023/04/04 05:22:13;;;;;;;;;;;5.20;98.80;;;;;;5053610;28;19955;-71
2023/04/04 05:24:39;;;;;;;;;;;5.30;98.80;;;;;;5053443;28;19923;-70
2023/04/04 05:27:05;;;;;;;;;;;5.40;99.10;;;;;;5052245;28;19909;-71
2023/04/04 05:29:32;;;;;;;;;;;5.50;98.80;;;;;;5053708;28;19915;-70
2023/04/04 05:31:57;;;;;;;;;;;5.50;98.40;;;;;;5053576;28;19909;-70
2023/04/04 05:34:23;;;;;;;;;;;5.40;98.40;;;;;;5051943;28;19924;-71
2023/04/04 05:36:49;;;;;;;;;;;5.50;98.50;;;;;;5053472;28;20467;-71
2023/04/04 05:39:15;;;;;;;;;;;5.40;98.70;;;;;;5053416;28;20022;-71
2023/04/04 05:41:40;;;;;;;;;;;5.40;98.40;;;;;;5052465;28;19909;-71
2023/04/04 05:44:06;;;;;;;;;;;5.50;99.00;;;;;;5055306;28;19982;-70
2023/04/04 05:46:32;;;;;;;;;;;5.60;99.10;;;;;;5058678;28;20286;-71
2023/04/04 05:49:00;;;;;;;;;;;5.70;99.30;;;;;;5053638;28;19913;-72
2023/04/04 05:51:26;;;;;;;;;;;5.80;99.40;;;;;;5051515;28;20421;-71
2023/04/04 05:53:51;;;;;;;;;;;5.80;98.60;;;;;;5051418;28;19921;-73
2023/04/04 05:56:17;;;;;;;;;;;5.90;99.90;;;;;;5048159;28;19983;-71
2023/04/04 05:58:45;;;;;;;;;;;6.00;99.90;;;;;;5063536;28;19913;-71
2023/04/04 06:01:11;;;;;;;;;;;6.10;98.70;;;;;;5072523;28;19909;-70
2023/04/04 06:03:37;;;;;;;;;;;6.10;98.80;;;;;;5071716;28;19992;-71
2023/04/04 06:06:05;;;;;;;;;;;6.20;98.00;;;;;;5073543;28;19912;-69
2023/04/04 06:08:31;;;;;;;;;;;6.00;97.80;;;;;;5075454;28;19939;-73
2023/04/04 06:10:57;;;;;;;;;;;5.90;97.80;;;;;;5077585;28;19912;-70
2023/04/04 06:13:23;;;;;;;;;;;6.00;98.20;;;;;;5075546;28;20440;-71
2023/04/04 06:15:49;;;;;;;;;;;6.00;98.20;;;;;;5076937;28;19939;-70
2023/04/04 06:18:16;;;;;;;;;;;6.00;97.90;;;;;;5076631;28;19909;-71
2023/04/04 06:20:41;;;;;;;;;;;6.00;98.90;;;;;;5077445;28;19950;-71
2023/04/04 06:23:08;;;;;;;;;;;6.00;98.40;;;;;;5076144;28;19909;-71
2023/04/04 06:25:35;;;;;;;;;;;6.20;98.60;;;;;;5074974;28;20457;-71
2023/04/04 06:28:02;;;;;;;;;;;6.20;98.50;;;;;;5075262;28;20358;-71
2023/04/04 06:30:28;;;;;;;;;;;6.30;98.30;;;;;;5075071;28;19916;-71
2023/04/04 06:32:54;;;;;;;;;;;6.30;98.00;;;;;;5075330;28;19909;-71
2023/04/04 06:35:19;;;;;;;;;;;6.30;98.30;;;;;;5074446;28;19912;-72
2023/04/04 06:37:45;;;;;;;;;;;6.30;98.00;;;;;;5076920;28;20327;-71
2023/04/04 06:40:11;;;;;;;;;;;6.20;97.50;;;;;;5076056;28;19916;-73
2023/04/04 06:42:37;;;;;;;;;;;6.10;96.90;;;;;;5059500;28;19920;-71
2023/04/04 06:45:02;;;;;;;;;;;6.20;97.30;;;;;;5071794;28;19921;-71
2023/04/04 06:47:29;;;;;;;;;;;6.20;97.20;;;;;;5076361;28;19919;-71
2023/04/04 06:49:54;;;;;;;;;;;6.30;97.30;;;;;;5076101;28;19908;-71
2023/04/04 06:52:20;;;;;;;;;;;6.40;97.60;;;;;;5076384;28;20292;-71
2023/04/04 06:54:46;;;;;;;;;;;6.50;97.60;;;;;;5074576;28;19944;-71
2023/04/04 06:57:11;;;;;;;;;;;6.40;97.10;;;;;;5076323;28;19958;-71
2023/04/04 06:59:37;;;;;;;;;;;6.40;96.80;;;;;;5076094;28;19920;-71
2023/04/04 07:02:03;;;;;;;;;;;6.40;97.10;;;;;;5074685;28;19919;-71
2023/04/04 07:04:31;;;;;;;;;;;6.40;97.10;;;;;;5075588;28;20252;-72
2023/04/04 07:06:57;;;;;;;;;;;6.50;97.30;;;;;;5076082;28;19909;-71
2023/04/04 07:09:22;;;;;;;;;;;6.50;96.90;;;;;;5074670;28;19923;-71
2023/04/04 07:11:48;;;;;;;;;;;6.60;96.80;;;;;;5074066;28;19908;-72
2023/04/04 07:14:13;;;;;;;;;;;6.50;96.60;;;;;;5073375;28;19913;-72
2023/04/04 07:16:39;;;;;;;;;;;6.50;96.60;;;;;;5071925;28;19955;-72
2023/04/04 07:19:05;;;;;;;;;;;6.50;96.70;;;;;;5072288;28;19913;-72
2023/04/04 07:21:31;;;;;;;;;;;6.50;96.60;;;;;;5073783;28;19908;-72
2023/04/04 07:23:58;;;;;;;;;;;6.50;96.20;;;;;;5073494;28;19939;-73
2023/04/04 07:26:24;;;;;;;;;;;6.50;96.30;;;;;;5073459;28;19909;-71
2023/04/04 07:28:50;;;;;;;;;;;6.70;96.70;;;;;;5071905;28;20389;-72
2023/04/04 07:31:16;;;;;;;;;;;6.80;96.60;;;;;;5071788;28;19951;-71
2023/04/04 07:33:41;;;;;;;;;;;6.90;96.70;;;;;;5071639;28;19963;-72
2023/04/04 07:36:08;;;;;;;;;;;7.00;96.60;;;;;;5072054;28;19915;-72
2023/04/04 07:38:35;;;;;;;;;;;7.00;96.50;;;;;;5072764;28;19915;-71
2023/04/04 07:41:00;;;;;;;;;;;7.10;95.90;;;;;;5066599;28;19917;-71
2023/04/04 07:43:26;;;;;;;;;;;7.10;96.60;;;;;;5053207;28;19935;-71
2023/04/04 07:45:53;;;;;;;;;;;7.20;95.90;;;;;;5054172;28;19913;-71
2023/04/04 07:48:18;;;;;;;;;;;7.30;95.90;;;;;;5078801;28;19916;-72
2023/04/04 07:50:44;;;;;;;;;;;7.30;95.80;;;;;;5060594;28;19935;-72
2023/04/04 07:53:10;;;;;;;;;;;7.30;95.50;;;;;;5069723;28;19915;-72
2023/04/04 07:55:35;;;;;;;;;;;7.20;95.90;;;;;;5074321;28;19909;-72
2023/04/04 07:58:01;;;;;;;;;;;7.20;96.10;;;;;;5074291;28;20354;-73
2023/04/04 08:00:27;;;;;;;;;;;7.30;95.90;;;;;;5073546;28;19971;-72
2023/04/04 08:02:53;;;;;;;;;;;7.40;95.90;;;;;;5073791;28;19916;-72
2023/04/04 08:05:19;;;;;;;;;;;7.30;95.40;;;;;;5074865;28;19908;-72
2023/04/04 08:07:45;;;;;;;;;;;7.30;95.60;;;;;;5073398;28;19913;-72
2023/04/04 08:10:11;;;;;;;;;;;7.30;95.60;;;;;;5074242;28;20133;-72
2023/04/04 08:12:37;;;;;;;;;;;7.30;95.20;;;;;;5072974;28;19909;-72
2023/04/04 08:15:03;;;;;;;;;;;7.30;95.40;;;;;;5073380;28;20047;-72
2023/04/04 08:17:28;;;;;;;;;;;7.40;95.40;;;;;;5073558;28;19909;-72
2023/04/04 08:19:54;;;;;;;;;;;7.50;96.20;;;;;;5072977;28;19915;-72
2023/04/04 08:22:20;;;;;;;;;;;7.60;95.40;;;;;;5073772;28;19909;-72
2023/04/04 08:24:45;;;;;;;;;;;7.50;95.10;;;;;;5072584;28;19916;-72
2023/04/04 08:27:11;;;;;;;;;;;7.50;95.20;;;;;;5073358;28;20003;-72
2023/04/04 08:29:37;;;;;;;;;;;7.40;94.80;;;;;;5073649;28;19960;-71
2023/04/04 08:32:03;;;;;;;;;;;7.30;94.80;;;;;;5074677;28;19919;-72
2023/04/04 08:34:28;;;;;;;;;;;7.30;94.90;;;;;;5073943;28;20258;-72
2023/04/04 08:36:54;;;;;;;;;;;7.40;95.30;;;;;;5072915;28;20362;-72
2023/04/04 08:39:20;;;;;;;;;;;7.50;95.00;;;;;;5074741;28;19916;-72
2023/04/04 08:41:46;;;;;;;;;;;7.60;94.90;;;;;;5073700;28;19908;-72
2023/04/04 08:44:16;;;;;;;;;;;7.70;95.20;;;;;;5074687;28;20054;-72
2023/04/04 08:46:42;;;;;;;;;;;7.80;95.00;;;;;;5074178;28;19954;-71
2023/04/04 08:49:09;;;;;;;;;;;7.90;94.90;;;;;;5074356;28;19919;-72
2023/04/04 08:51:35;;;;;;;;;;;8.00;95.30;;;;;;5074529;28;19916;-71
2023/04/04 08:54:02;;;;;;;;;;;8.10;94.80;;;;;;5074027;28;19919;-74
2023/04/04 08:56:28;;;;;;;;;;;8.00;94.50;;;;;;5072899;28;19932;-71
2023/04/04 08:58:54;;;;;;;;;;;7.80;94.90;;;;;;5073879;28;20370;-72
2023/04/04 09:01:21;;;;;;;;;;;7.90;94.50;;;;;;5074608;28;20003;-71
2023/04/04 09:03:47;;;;;;;;;;;8.00;95.00;;;;;;5073958;28;19908;-72
2023/04/04 09:06:13;;;;;;;;;;;8.00;94.90;;;;;;5074303;28;19926;-72
2023/04/04 09:08:38;;;;;;;;;;;8.20;95.20;;;;;;5074204;28;19912;-71
2023/04/04 09:11:04;;;;;;;;;;;8.30;95.10;;;;;;5072694;28;19994;-71
2023/04/04 09:13:30;;;;;;;;;;;8.40;95.10;;;;;;5072563;28;20332;-72
2023/04/04 09:15:56;;;;;;;;;;;8.40;95.00;;;;;;5072382;28;19940;-73
2023/04/04 09:18:22;;;;;;;;;;;8.40;93.90;;;;;;5071855;28;19999;-72
2023/04/04 09:20:48;;;;;;;;;;;8.40;94.40;;;;;;5072757;28;19955;-72
2023/04/04 09:23:13;;;;;;;;;;;8.50;94.50;;;;;;5073406;28;19917;-72
2023/04/04 09:25:49;;;;;;;;;;;8.40;94.20;;;;;;5072583;28;19912;-72
2023/04/04 09:28:15;;;;;;;;;;;8.50;94.60;;;;;;5072412;28;20392;-72
2023/04/04 09:30:42;;;;;;;;;;;8.50;94.50;;;;;;5073853;28;20326;-71
2023/04/04 09:33:09;;;;;;;;;;;8.60;93.90;;;;;;5073614;28;19938;-74
2023/04/04 09:35:40;;;;;;;;;;;8.60;94.20;;;;;;5074342;28;19916;-72
2023/04/04 09:38:06;;;;;;;;;;;8.70;94.20;;;;;;5074175;28;19908;-72
2023/04/04 09:40:33;;;;;;;;;;;8.70;93.80;;;;;;5076247;28;20436;-77
2023/04/04 09:42:59;;;;;;;;;;;8.70;94.60;;;;;;5076729;28;19954;-72
2023/04/04 09:45:25;;;;;;;;;;;8.80;93.80;;;;;;5076753;28;19915;-71
2023/04/04 09:47:51;;;;;;;;;;;8.70;93.40;;;;;;5078317;28;19913;-72
2023/04/04 09:50:21;;;;;;;;;;;8.70;94.30;;;;;;5078055;28;20310;-72
2023/04/04 09:52:51;;;;;;;;;;;8.80;94.50;;;;;;5078125;28;19909;-72
2023/04/04 09:55:17;;;;;;;;;;;9.00;94.70;;;;;;5076888;28;20267;-72
2023/04/04 09:57:43;;;;;;;;;;;9.00;94.30;;;;;;5076800;28;19942;-72
2023/04/04 10:00:10;;;;;;;;;;;9.00;93.20;;;;;;5077463;28;19908;-72
2023/04/04 10:02:37;;;;;;;;;;;8.90;92.70;;;;;;5076522;28;19913;-72
2023/04/04 10:05:03;;;;;;;;;;;8.90;93.30;;;;;;5077421;28;20344;-72
2023/04/04 10:07:29;;;;;;;;;;;8.90;93.30;;;;;;5076288;28;19919;-72
2023/04/04 10:09:56;;;;;;;;;;;9.00;94.10;;;;;;5076140;28;19912;-72
2023/04/04 10:12:24;;;;;;;;;;;9.10;94.00;;;;;;5075933;28;19909;-72
2023/04/04 10:14:57;;;;;;;;;;;9.20;93.70;;;;;;5074934;28;19991;-71
2023/04/04 10:17:24;;;;;;;;;;;9.20;93.00;;;;;;5075908;28;19916;-72
2023/04/04 10:19:51;;;;;;;;;;;9.20;93.40;;;;;;5076057;28;19908;-72
2023/04/04 10:22:16;;;;;;;;;;;9.20;93.30;;;;;;5074948;28;19916;-72
2023/04/04 10:24:42;;;;;;;;;;;9.30;93.00;;;;;;5076747;28;19920;-74
2023/04/04 10:27:08;;;;;;;;;;;9.20;92.30;;;;;;5077897;28;19993;-72
2023/04/04 10:29:33;;;;;;;;;;;9.20;92.40;;;;;;5077282;28;20283;-72
2023/04/04 10:32:01;;;;;;;;;;;9.00;92.30;;;;;;5077309;28;19955;-73
2023/04/04 10:34:46;;;;;;;;;;;9.00;92.50;;;;;;5074612;28;19908;-71
2023/04/04 10:37:14;;;;;;;;;;;9.00;92.10;;;;;;5075181;28;19908;-72
2023/04/04 10:40:05;;;;;;;;;;;9.00;91.80;;;;;;5075014;28;19920;-72
2023/04/04 10:42:37;;;;;;;;;;;9.10;92.40;;;;;;5074890;28;19909;-71
2023/04/04 10:45:04;;;;;;;;;;;9.20;92.70;;;;;;5075061;28;20424;-72
2023/04/04 10:47:30;;;;;;;;;;;9.30;93.60;;;;;;5076891;28;20347;-75
2023/04/04 10:49:56;;;;;;;;;;;9.30;92.90;;;;;;5076568;28;20306;-72
2023/04/04 10:52:23;;;;;;;;;;;9.50;93.20;;;;;;5076269;28;19908;-71
2023/04/04 10:54:51;;;;;;;;;;;9.50;92.40;;;;;;5074679;28;19916;-72
2023/04/04 10:57:17;;;;;;;;;;;9.60;92.60;;;;;;5075629;28;19923;-72
2023/04/04 11:00:09;;;;;;;;;;;9.60;92.30;;;;;;5074899;28;19920;-72
2023/04/04 11:02:54;;;;;;;;;;;9.60;91.90;;;;;;5074843;28;19966;-72
2023/04/04 11:05:21;;;;;;;;;;;9.80;93.50;;;;;;5073901;28;19916;-73
2023/04/04 11:07:47;;;;;;;;;;;9.90;93.00;;;;;;5074268;28;19960;-72
2023/04/04 11:10:15;;;;;;;;;;;10.00;93.50;;;;;;5074561;28;20058;-72
2023/04/04 11:12:44;;;;;;;;;;;10.00;92.30;;;;;;5073968;28;19915;-73
2023/04/04 11:15:12;;;;;;;;;;;10.00;91.40;;;;;;5073858;28;20381;-73
2023/04/04 11:17:47;;;;;;;;;;;9.90;91.50;;;;;;5076499;28;19914;-73
2023/04/04 11:20:19;;;;;;;;;;;9.90;91.90;;;;;;5077798;28;19919;-73
2023/04/04 11:22:44;;;;;;;;;;;9.90;91.60;;;;;;5076619;28;19939;-73
2023/04/04 11:25:31;;;;;;;;;;;10.00;92.60;;;;;;5076314;28;19916;-73
2023/04/04 11:27:58;;;;;;;;;;;10.20;91.80;;;;;;5074179;28;19912;-73
2023/04/04 11:30:24;;;;;;;;;;;10.20;91.60;;;;;;5073604;28;19913;-73
2023/04/04 11:32:50;;;;;;;;;;;10.40;92.40;;;;;;5075596;28;19909;-73
2023/04/04 11:35:16;;;;;;;;;;;10.40;91.90;;;;;;5075706;28;19915;-73
2023/04/04 11:38:02;;;;;;;;;;;10.40;92.60;;;;;;5075135;28;19987;-73
2023/04/04 11:40:38;;;;;;;;;;;10.50;93.00;;;;;;5076446;28;19909;-73
2023/04/04 11:43:10;;;;;;;;;;;10.70;92.40;;;;;;5075794;28;20023;-73
2023/04/04 11:45:37;;;;;;;;;;;10.80;92.40;;;;;;5076077;28;19943;-73
2023/04/04 11:48:04;;;;;;;;;;;10.80;91.90;;;;;;5074882;28;19917;-73
2023/04/04 11:50:34;;;;;;;;;;;10.90;92.60;;;;;;5075659;28;19913;-73
2023/04/04 11:53:03;;;;;;;;;;;11.00;91.50;;;;;;5075416;28;20362;-73
2023/04/04 11:55:30;;;;;;;;;;;10.80;88.60;;;;;;5074505;28;19915;-73
2023/04/04 11:57:58;;;;;;;;;;;10.60;88.50;;;;;;5074388;28;19908;-73
2023/04/04 12:00:30;;;;;;;;;;;10.50;90.10;;;;;;5074554;28;19935;-73
2023/04/04 12:02:56;;;;;;;;;;;10.60;90.40;;;;;;5073968;28;19920;-73
2023/04/04 12:05:22;;;;;;;;;;;10.70;89.70;;;;;;5073794;28;20216;-73
2023/04/04 12:07:48;;;;;;;;;;;10.70;88.90;;;;;;5074515;28;19989;-73
2023/04/04 12:10:14;;;;;;;;;;;10.80;90.80;;;;;;5072804;28;20411;-73
2023/04/04 12:12:41;;;;;;;;;;;10.90;91.30;;;;;;5073120;28;19908;-73
2023/04/04 12:15:07;;;;;;;;;;;11.00;91.10;;;;;;5073820;28;19943;-73
2023/04/04 12:17:38;;;;;;;;;;;11.20;91.40;;;;;;5074082;28;19998;-73
2023/04/04 12:20:03;;;;;;;;;;;11.20;91.20;;;;;;5072126;28;20416;-73
2023/04/04 12:22:33;;;;;;;;;;;11.20;90.80;;;;;;5073190;28;19908;-73
2023/04/04 12:25:07;;;;;;;;;;;11.20;90.40;;;;;;5109656;27;20388;-73
2023/04/04 12:27:33;;;;;;;;;;;11.30;90.30;;;;;;5110111;28;20002;-74
2023/04/04 12:29:59;;;;;;;;;;;11.20;89.90;;;;;;5108743;28;19912;-73
2023/04/04 12:32:25;;;;;;;;;;;11.20;90.10;;;;;;5110086;28;19912;-73
2023/04/04 12:34:51;;;;;;;;;;;11.20;90.30;;;;;;5109417;28;19912;-72
2023/04/04 12:37:18;;;;;;;;;;;11.30;91.00;;;;;;5109779;28;19930;-73
2023/04/04 12:39:48;;;;;;;;;;;11.40;91.00;;;;;;5109580;28;19912;-73
2023/04/04 12:42:19;;;;;;;;;;;11.40;91.00;;;;;;5109933;28;19908;-72
2023/04/04 12:44:45;;;;;;;;;;;11.50;90.50;;;;;;5109303;28;19947;-73
2023/04/04 12:47:14;;;;;;;;;;;11.40;90.80;;;;;;5109923;28;20293;-73
2023/04/04 12:49:47;;;;;;;;;;;11.50;91.00;;;;;;5110539;28;20408;-73
2023/04/04 12:52:17;;;;;;;;;;;11.60;90.50;;;;;;5109329;28;19908;-73
2023/04/04 12:54:42;;;;;;;;;;;11.70;91.00;;;;;;5109949;28;19915;-72
2023/04/04 12:57:10;;;;;;;;;;;11.70;90.10;;;;;;5108527;28;19912;-72
2023/04/04 12:59:36;;;;;;;;;;;11.60;89.10;;;;;;5108808;28;19915;-73
2023/04/04 13:02:02;;;;;;;;;;;11.60;86.40;;;;;;5110625;28;19908;-73
2023/04/04 13:04:28;;;;;;;;;;;11.60;88.20;;;;;;5109792;28;19920;-73
2023/04/04 13:06:54;;;;;;;;;;;11.60;87.10;;;;;;5109124;28;20433;-73
2023/04/04 13:09:21;;;;;;;;;;;11.70;89.90;;;;;;5108763;28;19915;-73
2023/04/04 13:12:07;;;;;;;;;;;11.70;87.70;;;;;;5110510;28;19908;-73
2023/04/04 13:14:51;;;;;;;;;;;11.60;87.70;;;;;;5108712;28;19908;-74
2023/04/04 13:17:18;;;;;;;;;;;11.60;88.70;;;;;;5108983;28;19908;-73
2023/04/04 13:19:43;;;;;;;;;;;11.60;89.80;;;;;;5110017;28;19954;-73
2023/04/04 13:22:09;;;;;;;;;;;11.80;90.00;;;;;;5109906;28;19908;-73
2023/04/04 13:24:35;;;;;;;;;;;11.80;88.30;;;;;;5109572;28;19916;-73
2023/04/04 13:27:01;;;;;;;;;;;11.90;89.70;;;;;;5110119;28;19908;-75
2023/04/04 13:29:26;;;;;;;;;;;11.90;89.40;;;;;;5108615;28;19908;-74
2023/04/04 13:31:52;;;;;;;;;;;11.90;90.40;;;;;;5109849;28;19908;-73
2023/04/04 13:34:19;;;;;;;;;;;12.00;90.10;;;;;;5108502;28;20355;-72
2023/04/04 13:36:45;;;;;;;;;;;12.00;90.10;;;;;;5096290;28;20305;-73
2023/04/04 13:39:11;;;;;;;;;;;12.00;87.30;;;;;;5096000;28;19957;-73
2023/04/04 13:41:36;;;;;;;;;;;12.00;89.10;;;;;;5094889;28;20289;-75
2023/04/04 13:44:02;;;;;;;;;;;12.00;88.80;;;;;;5095755;28;19957;-72
2023/04/04 13:46:28;;;;;;;;;;;11.90;88.10;;;;;;5094584;28;19943;-73
2023/04/04 13:48:53;;;;;;;;;;;11.90;88.40;;;;;;5096399;28;19954;-73
2023/04/04 13:51:19;;;;;;;;;;;12.00;90.20;;;;;;5096746;28;20381;-73
2023/04/04 13:53:45;;;;;;;;;;;12.20;90.70;;;;;;5094843;28;20362;-73
2023/04/04 13:56:10;;;;;;;;;;;12.30;90.40;;;;;;5094866;28;20294;-71
2023/04/04 13:58:36;;;;;;;;;;;12.40;90.70;;;;;;5094690;28;19947;-74
2023/04/04 14:01:08;;;;;;;;;;;12.30;89.20;;;;;;5096219;28;19908;-74
2023/04/04 14:03:34;;;;;;;;;;;12.30;88.90;;;;;;5095912;28;19919;-74
2023/04/04 14:06:00;;;;;;;;;;;12.30;89.30;;;;;;5096048;28;20309;-74
2023/04/04 14:08:26;;;;;;;;;;;12.30;86.70;;;;;;5095699;28;19909;-73
2023/04/04 14:10:51;;;;;;;;;;;12.30;88.70;;;;;;5094663;28;19916;-73
2023/04/04 14:13:18;;;;;;;;;;;12.20;87.30;;;;;;5095653;28;19908;-74
2023/04/04 14:15:44;;;;;;;;;;;12.20;87.10;;;;;;5094198;28;19908;-75
2023/04/04 14:18:11;;;;;;;;;;;12.10;85.90;;;;;;5094461;28;19931;-75
2023/04/04 14:20:37;;;;;;;;;;;12.10;86.80;;;;;;5095512;28;20424;-75
2023/04/04 14:23:02;;;;;;;;;;;12.10;86.20;;;;;;5093936;28;19916;-75
2023/04/04 14:25:28;;;;;;;;;;;12.10;86.70;;;;;;5094336;28;20373;-75
2023/04/04 14:27:54;;;;;;;;;;;12.20;86.00;;;;;;5095586;28;19995;-75